Parkland, Illinois
Current Conditions -  °F | °C
As of 1:54 PM on Monday 22 Dec 2014 (Local Time) from KPIA Reporting Station
Light Rain Light Rain  
Wind Chill: 36°   Ceiling: 500
Heat Index: 42°   Visibility: 6mi
Dew Point: 39°   Wind: 12mph
Humidity: 89%   Direction: 140°SE
Pressure: 29.62"   Gusts: NA
Location:  40.3879°N, 89.7742°W
Report Text: KPIA 221954Z 14010KT 6SM -RA BR OVC005 06/04 A2962 RMK AO2 SLP033 P0002 T00560039
Loading
Personal Weather Stations






























Interactive Weather Map New forecast layout! Learn more

10-Day Weather Forecast

Advertisements
Track Severe Weather on mobile